Terminal Aerodrome Forecast
Issued by NWS Memphis, TN

Home | Current Version | Previous Version | Text Only | Print | Product List | Glossary On
Versions: 1 2 3 4 5 6 7 8 9 10 11 12 13
000
FTUS44 KMEG 260522
TAFJBR
TAF
KJBR 260522Z 2606/2706 18010KT P6SM SCT250
     FM260700 18010KT P6SM BKN040
     FM261200 18014G22KT P6SM VCSH OVC015
     FM261800 18017G25KT P6SM VCSH BKN025
     FM262100 18019G28KT P6SM BKN040
     FM262300 19020G28KT 3SM TSRA BR SCT015 BKN035CB
      TEMPO 2700/2702 27030G40KT 1SM +TSRA BR BKN015CB
     FM270200 27014KT P6SM VCSH BKN030=

USA.gov is the U.S. government's official web portal to all federal, state and local government web resources and services.